createdAt,value
2022-11-16T00:00:50.196Z,147.30
2022-11-16T00:06:01.845Z,150.90
2022-11-16T00:11:12.729Z,150.90
2022-11-16T00:16:21.503Z,147.70
2022-11-16T00:21:30.125Z,143.30
2022-11-16T00:26:37.814Z,143.30
2022-11-16T00:31:46.194Z,152.00
2022-11-16T00:36:54.492Z,181.20
2022-11-16T00:42:02.125Z,156.20
2022-11-16T00:47:10.720Z,146.10
2022-11-16T00:52:18.496Z,177.20
2022-11-16T00:57:26.449Z,198.80
2022-11-16T01:02:34.599Z,203.60
2022-11-16T01:07:43.744Z,218.90
2022-11-16T01:12:52.890Z,232.40
2022-11-16T01:18:00.554Z,225.30
2022-11-16T01:23:08.789Z,229.00
2022-11-16T01:28:19.206Z,216.50
2022-11-16T01:33:31.743Z,202.00
2022-11-16T01:38:39.611Z,192.10
2022-11-16T01:43:57.118Z,175.70
2022-11-16T01:49:12.242Z,183.40
2022-11-16T01:54:20.917Z,169.00
2022-11-16T01:59:36.572Z,163.00
2022-11-16T02:04:51.356Z,183.40
2022-11-16T02:10:18.001Z,161.70
2022-11-16T02:15:31.128Z,179.50
2022-11-16T02:20:56.116Z,165.90
2022-11-16T02:26:26.389Z,172.80
2022-11-16T02:31:39.003Z,173.80
2022-11-16T02:36:48.531Z,166.10
2022-11-16T02:41:58.423Z,166.90
2022-11-16T02:47:10.528Z,159.20
2022-11-16T02:52:19.125Z,156.50
2022-11-16T02:57:45.221Z,154.90
2022-11-16T03:03:08.430Z,144.90
2022-11-16T03:08:23.290Z,142.50
2022-11-16T03:13:35.563Z,146.90
2022-11-16T03:18:44.871Z,133.30
2022-11-16T03:23:53.197Z,126.70
2022-11-16T03:29:08.775Z,114.20
2022-11-16T03:34:20.980Z,115.00
2022-11-16T03:39:33.045Z,107.30
2022-11-16T03:44:43.788Z,101.10
2022-11-16T03:49:50.888Z,98.40
2022-11-16T03:54:58.964Z,93.30
2022-11-16T04:00:10.312Z,89.20
2022-11-16T04:05:42.385Z,87.50
2022-11-16T04:11:12.257Z,92.50
2022-11-16T04:16:36.881Z,94.90
2022-11-16T04:22:08.506Z,94.60
2022-11-16T04:27:36.086Z,95.10
2022-11-16T04:33:01.499Z,98.10
2022-11-16T04:38:08.640Z,100.70
2022-11-16T04:43:15.979Z,95.20
2022-11-16T04:48:23.832Z,101.80
2022-11-16T04:53:33.290Z,95.60
2022-11-16T04:59:01.584Z,98.00
2022-11-16T05:04:09.750Z,101.70
2022-11-16T05:09:17.855Z,100.50
2022-11-16T05:14:25.210Z,99.90
2022-11-16T05:19:51.552Z,99.60
2022-11-16T05:24:58.896Z,104.70
2022-11-16T05:30:07.822Z,103.50
2022-11-16T05:35:15.135Z,101.40
2022-11-16T05:40:23.102Z,100.10
2022-11-16T05:45:35.601Z,107.70
2022-11-16T05:50:43.343Z,103.00
2022-11-16T05:55:56.700Z,108.50
2022-11-16T06:01:04.135Z,109.60
2022-11-16T06:06:12.740Z,114.50
2022-11-16T06:11:19.981Z,107.90
2022-11-16T06:16:27.280Z,108.50
2022-11-16T06:21:34.911Z,114.20
2022-11-16T06:26:43.463Z,117.20
2022-11-16T06:31:50.536Z,118.40
2022-11-16T06:36:57.786Z,113.30
2022-11-16T06:42:05.302Z,109.30
2022-11-16T06:47:13.038Z,115.30
2022-11-16T06:52:20.199Z,112.90
2022-11-16T06:57:27.555Z,125.40
2022-11-16T07:02:34.707Z,124.50
2022-11-16T07:07:42.302Z,128.50
2022-11-16T07:12:49.415Z,133.40
2022-11-16T07:18:03.849Z,123.60
2022-11-16T07:23:14.171Z,118.70
2022-11-16T07:28:24.697Z,128.30
2022-11-16T07:33:32.081Z,144.10
2022-11-16T07:39:04.700Z,132.70
2022-11-16T07:44:12.355Z,126.90
2022-11-16T07:49:21.925Z,131.90
2022-11-16T07:59:38.960Z,118.30
2022-11-16T08:04:47.228Z,116.30
2022-11-16T08:09:54.572Z,121.40
2022-11-16T08:15:02.295Z,114.00
2022-11-16T08:20:11.822Z,120.10
2022-11-16T08:25:19.843Z,116.30
2022-11-16T08:30:27.364Z,104.80
2022-11-16T08:35:36.367Z,104.70
2022-11-16T08:40:43.475Z,111.40
2022-11-16T08:45:51.546Z,101.90
2022-11-16T08:51:21.116Z,101.00
2022-11-16T08:56:33.790Z,90.50
2022-11-16T09:01:42.421Z,83.40
2022-11-16T09:06:49.357Z,94.20
2022-11-16T09:11:57.202Z,101.60
2022-11-16T09:17:04.634Z,96.70
2022-11-16T09:22:11.743Z,96.50
2022-11-16T09:27:22.045Z,93.90
2022-11-16T09:32:29.020Z,84.60
2022-11-16T09:37:36.040Z,80.90
2022-11-16T09:42:58.540Z,94.90
2022-11-16T09:48:12.249Z,90.10
2022-11-16T09:53:31.693Z,83.30
2022-11-16T09:58:45.211Z,78.30
2022-11-16T10:03:56.740Z,83.30
2022-11-16T10:09:04.098Z,83.50
2022-11-16T10:14:25.443Z,80.70
2022-11-16T10:19:40.369Z,89.00
2022-11-16T10:24:57.981Z,74.40
2022-11-16T10:30:14.346Z,78.10
2022-11-16T10:35:28.646Z,80.50
2022-11-16T10:40:40.090Z,78.90
2022-11-16T10:45:52.938Z,76.00
2022-11-16T10:51:00.188Z,75.20
2022-11-16T10:56:18.849Z,72.00
2022-11-16T11:01:37.894Z,71.00
2022-11-16T11:06:45.770Z,80.20
2022-11-16T11:12:20.771Z,81.40
2022-11-16T11:17:28.608Z,82.20
2022-11-16T11:22:43.144Z,89.60
2022-11-16T11:27:50.975Z,88.20
2022-11-16T11:32:59.150Z,85.20
2022-11-16T11:38:08.444Z,91.80
2022-11-16T11:43:25.284Z,94.80
2022-11-16T11:48:47.868Z,92.70
2022-11-16T11:53:58.733Z,83.10
2022-11-16T11:59:06.203Z,76.20
2022-11-16T12:05:04.676Z,68.60
2022-11-16T12:10:22.503Z,60.60
2022-11-16T12:15:55.578Z,56.00
2022-11-16T12:21:12.798Z,61.70
2022-11-16T12:26:29.494Z,67.80
2022-11-16T12:31:52.400Z,68.10
2022-11-16T12:37:05.346Z,53.80
2022-11-16T12:42:24.610Z,57.00
2022-11-16T12:47:39.871Z,61.50
2022-11-16T12:53:10.599Z,56.90
2022-11-16T12:58:28.530Z,69.90
2022-11-16T13:03:43.749Z,61.00
2022-11-16T13:09:04.740Z,57.60
2022-11-16T13:14:18.796Z,54.60
2022-11-16T13:19:26.455Z,56.70
2022-11-16T13:24:51.014Z,61.60
2022-11-16T13:30:02.923Z,64.20
2022-11-16T13:40:27.170Z,63.70
2022-11-16T13:45:38.999Z,61.30
2022-11-16T13:50:51.721Z,62.50
2022-11-16T13:56:01.333Z,61.60
2022-11-16T14:01:11.005Z,57.70
2022-11-16T14:06:53.038Z,58.50
2022-11-16T14:12:19.866Z,63.10
2022-11-16T14:17:53.816Z,59.50
2022-11-16T14:23:12.985Z,51.10
2022-11-16T14:28:44.328Z,48.20
2022-11-16T14:33:54.431Z,48.30
2022-11-16T14:39:41.183Z,44.30
2022-11-16T14:44:49.218Z,40.40
2022-11-16T14:49:57.443Z,38.60
2022-11-16T14:55:10.860Z,43.30
2022-11-16T15:00:25.842Z,43.70
2022-11-16T15:05:37.678Z,50.70
2022-11-16T15:10:52.356Z,51.10
2022-11-16T15:16:16.871Z,52.00
2022-11-16T15:21:25.688Z,47.20
2022-11-16T15:26:32.619Z,45.50
2022-11-16T15:31:42.745Z,48.40
2022-11-16T15:36:50.307Z,44.70
2022-11-16T15:42:03.258Z,44.00
2022-11-16T15:47:13.397Z,51.80
2022-11-16T15:52:50.423Z,53.60
2022-11-16T15:58:15.015Z,59.50
2022-11-16T16:03:25.550Z,49.60
2022-11-16T16:08:37.938Z,50.30
2022-11-16T16:13:57.631Z,48.70
2022-11-16T16:19:09.932Z,59.90
2022-11-16T16:24:45.134Z,53.60
2022-11-16T16:29:54.051Z,50.60
2022-11-16T16:35:02.681Z,48.70
2022-11-16T16:40:11.814Z,39.50
2022-11-16T16:45:22.462Z,39.30
2022-11-16T16:50:29.328Z,40.80
2022-11-16T16:55:37.706Z,36.80
2022-11-16T17:00:44.873Z,33.90
2022-11-16T17:05:53.726Z,40.70
2022-11-16T17:11:00.688Z,38.00
2022-11-16T17:16:09.042Z,33.20
2022-11-16T17:21:15.986Z,34.20
2022-11-16T17:26:22.994Z,36.00
2022-11-16T17:31:30.109Z,36.40
2022-11-16T17:36:37.328Z,30.60
2022-11-16T17:41:44.393Z,28.50
2022-11-16T17:46:51.579Z,25.70
2022-11-16T17:51:58.595Z,38.60
2022-11-16T17:57:05.589Z,29.40
2022-11-16T18:02:14.315Z,28.80
2022-11-16T18:07:21.658Z,30.40
2022-11-16T18:12:29.240Z,33.40
2022-11-16T18:17:36.532Z,27.50
2022-11-16T18:22:44.892Z,27.30
2022-11-16T18:27:55.151Z,24.40
2022-11-16T18:33:02.235Z,25.20
2022-11-16T18:38:13.108Z,23.30
2022-11-16T18:43:20.061Z,19.40
2022-11-16T18:48:27.594Z,25.40
2022-11-16T18:53:35.322Z,22.20
2022-11-16T18:58:50.398Z,22.70
2022-11-16T19:03:59.255Z,22.90
2022-11-16T19:09:09.713Z,21.10
2022-11-16T19:14:16.982Z,20.30
2022-11-16T19:19:24.507Z,18.70
2022-11-16T19:24:31.891Z,21.50
2022-11-16T19:29:39.011Z,23.90
2022-11-16T19:34:46.202Z,19.60
2022-11-16T19:39:53.104Z,20.10
2022-11-16T19:45:00.416Z,22.70
2022-11-16T19:50:10.136Z,26.40
2022-11-16T19:55:17.507Z,24.70
2022-11-16T20:00:25.042Z,20.10
2022-11-16T20:05:33.402Z,19.10
2022-11-16T20:10:40.451Z,18.30
2022-11-16T20:15:50.185Z,18.80
2022-11-16T20:21:00.896Z,19.30
2022-11-16T20:26:09.997Z,19.80
2022-11-16T20:31:21.307Z,22.30
2022-11-16T20:36:30.064Z,18.80
2022-11-16T20:41:37.443Z,21.50
2022-11-16T20:46:45.354Z,20.30
2022-11-16T20:51:52.620Z,23.00
2022-11-16T20:57:00.090Z,24.80
2022-11-16T21:02:07.234Z,23.60
2022-11-16T21:07:14.636Z,22.20
2022-11-16T21:12:50.599Z,26.50
2022-11-16T21:17:57.725Z,33.70
2022-11-16T21:23:05.319Z,29.80
2022-11-16T21:28:12.335Z,31.00
2022-11-16T21:33:19.404Z,25.30
2022-11-16T21:38:27.410Z,24.10
2022-11-16T21:43:36.594Z,22.70
2022-11-16T21:48:44.551Z,21.40
2022-11-16T21:53:51.866Z,25.10
2022-11-16T21:58:59.026Z,21.80
2022-11-16T22:04:23.640Z,23.40
2022-11-16T22:09:30.821Z,22.20
2022-11-16T22:14:38.296Z,21.90
2022-11-16T22:19:45.870Z,23.10
2022-11-16T22:24:54.113Z,25.90
2022-11-16T22:30:02.018Z,25.70
2022-11-16T22:35:10.499Z,30.10
2022-11-16T22:40:18.616Z,29.70
2022-11-16T22:45:26.271Z,25.80
2022-11-16T22:50:34.232Z,31.30
2022-11-16T22:55:42.085Z,29.00
2022-11-16T23:00:49.902Z,31.40
2022-11-16T23:05:57.652Z,37.00
2022-11-16T23:11:25.344Z,31.20
2022-11-16T23:16:33.252Z,33.70
2022-11-16T23:21:58.106Z,35.10
2022-11-16T23:27:23.799Z,29.90
2022-11-16T23:32:31.782Z,32.40
2022-11-16T23:37:52.754Z,30.10
2022-11-16T23:43:18.020Z,27.70
2022-11-16T23:48:25.657Z,30.20
2022-11-16T23:53:33.770Z,27.80
2022-11-16T23:58:41.633Z,24.20
